Offutt Air Force Base Omaha US
ICAO: KOFF
IATA: OFF
Category: Medium
Scheduled Services: No

Elevation: 1052 ft
TransAlt. 18000 ft.

Airport Communications:
OMAHA APP/DEP:118
ATIS:126.025
GND:121.7
PMSV METRO:22.74
COMD POST:31.1
PTD:37.94
TWR:123.7

KOFF Zoom In..

If you have problems with the map follow the link
https://www.worldairports.se/pages/airport.php?
ICAO=KOFF

Runways:

(A) RW 12 length 11702 ft width 150 ft
ILS 111.70 / hdg 124

(B) RW 30 length 11702 ft width 150 ft
ILS 109.50 / hdg 304

Location; KOFF
Day. 16 / Time. 00.56 Zulu
* Altimeter: 30.09
* Temperature: -06° c. -21.2°f.
* Wind from: 030° Speed 03 kn.
Dewpoint: -09° c.
Visibility: 10 Statute Miles.
Clouds: Few 1300 ft.
Clouds: Scattered 2000 ft.
Clouds: Overcast 3000 ft.

KOFF 160056Z 03003KT 10SM FEW013 SCT020 OVC030 M06/M09 A3009 RMK AO2A SLP218 RVRNO $


Wind From 030°
Speed 03 kn.

 
 
jpsmedia worldairports.se 2019   terms of use